createdAt,value
2022-08-28T00:00:35.824Z,6.93
2022-08-28T00:02:37.879Z,5.70
2022-08-28T00:04:39.784Z,6.43
2022-08-28T00:06:41.742Z,5.17
2022-08-28T00:08:43.600Z,4.05
2022-08-28T00:10:45.864Z,4.07
2022-08-28T00:12:49.307Z,4.22
2022-08-28T00:14:51.151Z,5.03
2022-08-28T00:16:53.144Z,5.07
2022-08-28T00:18:54.947Z,5.13
2022-08-28T00:20:57.421Z,3.90
2022-08-28T00:23:00.375Z,4.03
2022-08-28T00:25:02.213Z,2.78
2022-08-28T00:27:22.925Z,3.35
2022-08-28T00:29:24.876Z,3.45
2022-08-28T00:31:26.833Z,3.40
2022-08-28T00:33:33.179Z,3.08
2022-08-28T00:35:35.223Z,3.55
2022-08-28T00:37:37.186Z,2.65
2022-08-28T00:41:42.754Z,2.65
2022-08-28T00:43:47.873Z,2.20
2022-08-28T00:45:49.719Z,2.78
2022-08-28T00:47:51.564Z,2.92
2022-08-28T00:49:55.443Z,2.20
2022-08-28T00:52:05.781Z,2.38
2022-08-28T00:54:08.381Z,2.70
2022-08-28T00:56:13.120Z,2.78
2022-08-28T00:58:16.098Z,2.88
2022-08-28T01:00:44.251Z,4.18
2022-08-28T01:02:46.537Z,2.40
2022-08-28T01:04:50.310Z,4.10
2022-08-28T01:06:54.613Z,2.83
2022-08-28T01:08:56.934Z,2.63
2022-08-28T01:11:03.613Z,2.95
2022-08-28T01:13:05.956Z,5.03
2022-08-28T01:15:12.122Z,4.97
2022-08-28T01:17:18.091Z,4.65
2022-08-28T01:19:37.334Z,5.00
2022-08-28T01:21:54.912Z,7.03
2022-08-28T01:24:11.725Z,6.95
2022-08-28T01:26:13.989Z,6.10
2022-08-28T01:28:16.723Z,6.63
2022-08-28T01:32:41.544Z,5.88
2022-08-28T01:34:43.340Z,6.53
2022-08-28T01:36:45.139Z,4.50
2022-08-28T01:38:52.906Z,4.20
2022-08-28T01:40:57.722Z,4.60
2022-08-28T01:43:14.164Z,3.78
2022-08-28T01:45:18.056Z,4.43
2022-08-28T01:47:20.793Z,4.30
2022-08-28T01:51:24.828Z,3.70
2022-08-28T01:53:33.134Z,3.15
2022-08-28T01:55:36.649Z,3.22
2022-08-28T01:57:52.931Z,4.70
2022-08-28T01:59:55.236Z,3.95
2022-08-28T02:01:57.060Z,3.22
2022-08-28T02:03:59.956Z,2.30
2022-08-28T02:06:01.793Z,2.53
2022-08-28T02:08:04.977Z,2.63
2022-08-28T02:10:08.453Z,3.00
2022-08-28T02:12:10.842Z,2.65
2022-08-28T02:14:12.598Z,2.97
2022-08-28T02:16:14.472Z,2.40
2022-08-28T02:18:16.512Z,3.63
2022-08-28T02:20:18.476Z,2.72
2022-08-28T02:22:20.363Z,4.93
2022-08-28T02:24:22.242Z,2.70
2022-08-28T02:26:24.666Z,3.13
2022-08-28T02:28:26.465Z,3.17
2022-08-28T02:30:28.414Z,3.97
2022-08-28T02:32:30.236Z,4.40
2022-08-28T02:34:33.662Z,3.65
2022-08-28T02:36:35.506Z,3.00
2022-08-28T02:38:38.198Z,2.88
2022-08-28T02:42:42.788Z,4.50
2022-08-28T02:44:44.707Z,3.10
2022-08-28T02:46:46.496Z,2.90
2022-08-28T02:48:48.317Z,2.90
2022-08-28T02:50:50.101Z,3.03
2022-08-28T02:52:52.309Z,3.45
2022-08-28T02:54:54.091Z,3.45
2022-08-28T02:56:55.905Z,3.65
2022-08-28T02:58:58.354Z,3.50
2022-08-28T03:01:01.979Z,3.65
2022-08-28T03:03:03.959Z,3.90
2022-08-28T03:05:06.090Z,3.97
2022-08-28T03:07:09.314Z,5.18
2022-08-28T03:09:13.013Z,3.80
2022-08-28T03:11:15.086Z,3.50
2022-08-28T03:13:26.625Z,3.50
2022-08-28T03:15:29.090Z,3.60
2022-08-28T03:17:31.810Z,4.93
2022-08-28T03:21:35.548Z,3.90
2022-08-28T03:23:37.627Z,5.60
2022-08-28T03:25:39.704Z,4.55
2022-08-28T03:27:41.479Z,4.38
2022-08-28T03:29:43.363Z,4.43
2022-08-28T03:31:45.149Z,4.63
2022-08-28T03:33:47.876Z,4.88
2022-08-28T03:37:51.726Z,6.05
2022-08-28T03:39:53.511Z,6.15
2022-08-28T03:41:55.344Z,5.23
2022-08-28T03:43:59.964Z,4.78
2022-08-28T03:46:04.353Z,5.00
2022-08-28T03:48:07.257Z,4.70
2022-08-28T03:50:13.156Z,4.30
2022-08-28T03:52:14.935Z,5.53
2022-08-28T03:54:16.695Z,4.93
2022-08-28T03:56:22.364Z,6.53
2022-08-28T03:58:25.354Z,4.95
2022-08-28T04:00:27.180Z,4.53
2022-08-28T04:02:29.018Z,6.43
2022-08-28T04:04:30.793Z,5.43
2022-08-28T04:06:32.626Z,4.60
2022-08-28T04:08:34.425Z,5.80
2022-08-28T04:10:36.725Z,5.53
2022-08-28T04:12:38.792Z,5.20
2022-08-28T04:14:40.593Z,5.00
2022-08-28T04:16:42.815Z,5.07
2022-08-28T04:18:45.755Z,5.60
2022-08-28T04:21:08.070Z,5.32
2022-08-28T04:23:10.125Z,5.30
2022-08-28T04:25:11.904Z,6.28
2022-08-28T04:27:14.991Z,6.00
2022-08-28T04:29:17.145Z,5.13
2022-08-28T04:31:19.179Z,5.47
2022-08-28T04:33:35.759Z,5.47
2022-08-28T04:35:37.548Z,5.10
2022-08-28T04:37:40.865Z,5.07
2022-08-28T04:39:42.696Z,5.57
2022-08-28T04:41:44.712Z,5.53
2022-08-28T04:43:47.407Z,6.55
2022-08-28T04:47:50.950Z,5.63
2022-08-28T04:49:53.030Z,5.93
2022-08-28T04:51:54.968Z,5.78
2022-08-28T04:53:58.192Z,6.23
2022-08-28T04:56:02.692Z,4.72
2022-08-28T04:58:04.517Z,6.60
2022-08-28T05:00:08.042Z,6.60
2022-08-28T05:02:09.877Z,5.75
2022-08-28T05:04:12.460Z,7.23
2022-08-28T05:06:16.119Z,5.55
2022-08-28T05:08:20.221Z,5.18
2022-08-28T05:10:22.231Z,5.10
2022-08-28T05:12:24.108Z,6.20
2022-08-28T05:14:26.042Z,5.83
2022-08-28T05:16:27.942Z,8.00
2022-08-28T05:18:30.046Z,5.03
2022-08-28T05:20:36.803Z,5.88
2022-08-28T05:22:38.647Z,5.93
2022-08-28T05:24:40.520Z,4.72
2022-08-28T05:26:43.025Z,7.33
2022-08-28T05:28:45.124Z,5.35
2022-08-28T05:30:47.035Z,5.35
2022-08-28T05:32:48.789Z,6.23
2022-08-28T05:34:50.583Z,5.28
2022-08-28T05:36:52.589Z,5.40
2022-08-28T05:38:58.073Z,5.05
2022-08-28T05:41:00.222Z,4.93
2022-08-28T05:43:01.994Z,6.10
2022-08-28T05:45:04.988Z,5.45
2022-08-28T05:47:06.833Z,6.00
2022-08-28T05:49:10.388Z,6.20
2022-08-28T05:51:16.107Z,6.10
2022-08-28T05:53:18.144Z,6.10
2022-08-28T05:55:19.941Z,6.60
2022-08-28T05:57:21.832Z,5.90
2022-08-28T05:59:24.842Z,5.77
2022-08-28T06:01:29.936Z,5.65
2022-08-28T06:03:31.952Z,6.60
2022-08-28T06:05:33.741Z,7.13
2022-08-28T06:07:35.583Z,6.72
2022-08-28T06:09:38.336Z,6.73
2022-08-28T06:13:47.945Z,6.60
2022-08-28T06:15:50.052Z,6.30
2022-08-28T06:17:51.953Z,6.32
2022-08-28T06:19:54.084Z,6.90
2022-08-28T06:21:58.969Z,9.05
2022-08-28T06:24:00.969Z,6.50
2022-08-28T06:26:06.151Z,6.30
2022-08-28T06:28:07.973Z,8.23
2022-08-28T06:30:11.407Z,6.72
2022-08-28T06:32:13.302Z,7.30
2022-08-28T06:34:15.223Z,8.17
2022-08-28T06:36:17.138Z,8.17
2022-08-28T06:38:21.007Z,8.27
2022-08-28T06:40:22.801Z,8.73
2022-08-28T06:42:25.282Z,9.57
2022-08-28T06:44:27.133Z,10.20
2022-08-28T06:46:30.485Z,10.60
2022-08-28T06:48:32.445Z,10.88
2022-08-28T06:50:34.891Z,11.33
2022-08-28T06:52:36.690Z,9.93
2022-08-28T06:54:55.343Z,12.23
2022-08-28T06:56:57.792Z,10.73
2022-08-28T06:59:00.061Z,10.18
2022-08-28T07:01:08.062Z,10.15
2022-08-28T07:03:10.204Z,11.32
2022-08-28T07:05:12.224Z,14.10
2022-08-28T07:07:31.338Z,15.05
2022-08-28T07:09:33.745Z,15.60
2022-08-28T07:11:36.999Z,15.45
2022-08-28T07:13:38.778Z,15.82
2022-08-28T07:15:41.851Z,18.42
2022-08-28T07:17:44.309Z,24.25
2022-08-28T07:19:46.503Z,17.23
2022-08-28T07:21:48.341Z,20.15
2022-08-28T07:23:50.455Z,19.10
2022-08-28T07:25:52.335Z,20.92
2022-08-28T07:27:54.235Z,20.00
2022-08-28T07:29:55.977Z,20.93
2022-08-28T07:31:59.136Z,23.25
2022-08-28T07:34:00.954Z,23.73
2022-08-28T07:36:03.438Z,23.25
2022-08-28T07:38:05.276Z,24.73
2022-08-28T07:40:10.089Z,23.55
2022-08-28T07:42:35.698Z,22.58
2022-08-28T07:44:49.744Z,27.95
2022-08-28T07:47:00.411Z,26.95
2022-08-28T07:49:02.335Z,26.27
2022-08-28T07:51:05.555Z,29.73
2022-08-28T07:53:08.168Z,28.00
2022-08-28T07:55:10.002Z,26.30
2022-08-28T07:57:11.864Z,28.30
2022-08-28T07:59:17.088Z,26.90
2022-08-28T08:01:19.722Z,24.88
2022-08-28T08:03:22.774Z,21.38
2022-08-28T08:05:25.643Z,24.95
2022-08-28T08:09:29.266Z,25.33
2022-08-28T08:11:32.561Z,23.13
2022-08-28T08:13:35.213Z,24.13
2022-08-28T08:15:37.047Z,23.75
2022-08-28T08:17:39.372Z,23.70
2022-08-28T08:19:41.285Z,24.27
2022-08-28T08:21:45.911Z,22.58
2022-08-28T08:23:48.491Z,21.55
2022-08-28T08:25:59.767Z,21.77
2022-08-28T08:28:03.839Z,21.23
2022-08-28T08:30:06.117Z,22.00
2022-08-28T08:32:11.088Z,20.08
2022-08-28T08:34:12.935Z,19.65
2022-08-28T08:36:17.833Z,21.73
2022-08-28T08:38:19.612Z,21.85
2022-08-28T08:40:21.777Z,21.15
2022-08-28T08:42:33.072Z,21.73
2022-08-28T08:44:40.380Z,22.65
2022-08-28T08:46:53.988Z,21.55
2022-08-28T08:49:04.284Z,19.83
2022-08-28T08:51:18.363Z,17.13
2022-08-28T08:53:44.574Z,18.50
2022-08-28T08:55:54.784Z,15.10
2022-08-28T08:58:08.996Z,17.45
2022-08-28T09:00:15.718Z,17.00
2022-08-28T09:02:31.456Z,16.80
2022-08-28T09:04:51.730Z,15.75
2022-08-28T09:07:08.496Z,16.77
2022-08-28T09:09:35.451Z,14.35
2022-08-28T09:11:57.551Z,14.45
2022-08-28T09:14:07.893Z,12.15
2022-08-28T09:16:31.633Z,12.43
2022-08-28T09:18:34.735Z,11.73
2022-08-28T09:20:36.516Z,12.68
2022-08-28T09:22:42.606Z,13.15
2022-08-28T09:24:45.287Z,12.40
2022-08-28T09:27:26.805Z,12.90
2022-08-28T09:29:35.813Z,13.90
2022-08-28T09:31:41.211Z,13.38
2022-08-28T09:33:46.700Z,12.90
2022-08-28T09:35:48.539Z,12.77
2022-08-28T09:37:51.323Z,13.80
2022-08-28T09:40:16.199Z,11.77
2022-08-28T09:42:42.789Z,11.73
2022-08-28T09:45:13.546Z,12.85
2022-08-28T09:47:34.914Z,15.05
2022-08-28T09:49:42.363Z,14.25
2022-08-28T09:51:44.407Z,17.27
2022-08-28T09:53:52.335Z,15.20
2022-08-28T09:55:59.686Z,16.65
2022-08-28T09:58:01.886Z,17.67
2022-08-28T10:00:04.887Z,16.60
2022-08-28T10:02:16.864Z,20.63
2022-08-28T10:04:37.198Z,19.67
2022-08-28T10:06:40.235Z,17.50
2022-08-28T10:09:03.994Z,17.38
2022-08-28T10:11:19.352Z,17.15
2022-08-28T10:13:27.204Z,18.70
2022-08-28T10:15:38.016Z,18.70
2022-08-28T10:18:22.795Z,16.70
2022-08-28T10:20:55.031Z,16.85
2022-08-28T10:23:17.888Z,16.67
2022-08-28T10:25:33.722Z,19.80
2022-08-28T10:28:17.783Z,18.80
2022-08-28T10:32:49.471Z,18.10
2022-08-28T10:35:16.290Z,18.70
2022-08-28T10:37:36.959Z,18.02
2022-08-28T10:39:51.668Z,17.70
2022-08-28T10:42:00.198Z,17.25
2022-08-28T10:44:03.737Z,18.65
2022-08-28T10:46:14.842Z,17.60
2022-08-28T10:48:44.047Z,19.40
2022-08-28T10:51:01.653Z,18.08
2022-08-28T10:53:10.338Z,15.80
2022-08-28T10:55:38.941Z,16.67
2022-08-28T10:58:03.454Z,14.48
2022-08-28T11:00:11.997Z,14.45
2022-08-28T11:02:16.489Z,16.45
2022-08-28T11:04:25.519Z,14.38
2022-08-28T11:06:42.081Z,16.50
2022-08-28T11:08:52.088Z,16.95
2022-08-28T11:10:56.164Z,15.43
2022-08-28T11:12:58.714Z,15.43
2022-08-28T11:15:40.985Z,17.70
2022-08-28T11:17:43.668Z,16.15
2022-08-28T11:19:56.966Z,14.82
2022-08-28T11:22:11.679Z,17.45
2022-08-28T11:24:31.694Z,16.45
2022-08-28T11:26:50.154Z,18.67
2022-08-28T11:28:52.003Z,28.83
2022-08-28T11:31:28.736Z,19.80
2022-08-28T11:33:37.002Z,17.92
2022-08-28T11:35:41.531Z,17.77
2022-08-28T11:37:48.607Z,20.02
2022-08-28T11:39:50.410Z,23.17
2022-08-28T11:42:10.632Z,22.40
2022-08-28T11:44:15.133Z,21.73
2022-08-28T11:46:19.937Z,18.85
2022-08-28T11:48:36.125Z,22.50
2022-08-28T11:51:02.311Z,21.55
2022-08-28T11:53:18.337Z,20.02
2022-08-28T11:56:08.132Z,20.83
2022-08-28T11:58:25.046Z,20.60
2022-08-28T12:01:03.635Z,23.08
2022-08-28T12:03:16.743Z,23.02
2022-08-28T12:07:22.812Z,22.27
2022-08-28T12:09:36.063Z,23.13
2022-08-28T12:11:40.795Z,26.38
2022-08-28T12:13:50.139Z,25.45
2022-08-28T12:16:05.990Z,26.38
2022-08-28T12:18:10.779Z,24.95
2022-08-28T12:20:24.424Z,26.13
2022-08-28T12:22:59.780Z,23.40
2022-08-28T12:25:04.722Z,27.15
2022-08-28T12:27:08.059Z,24.00
2022-08-28T12:29:32.669Z,30.08
2022-08-28T12:32:12.549Z,25.17
2022-08-28T12:34:26.234Z,28.02
2022-08-28T12:36:28.760Z,28.65
2022-08-28T12:38:32.978Z,28.95
2022-08-28T12:40:37.799Z,27.55
2022-08-28T12:42:55.376Z,27.85
2022-08-28T12:45:03.687Z,26.25
2022-08-28T12:47:06.048Z,29.67
2022-08-28T12:49:26.596Z,30.25
2022-08-28T12:51:36.782Z,30.58
2022-08-28T12:53:45.847Z,30.95
2022-08-28T12:55:47.939Z,33.42
2022-08-28T12:57:50.353Z,28.48
2022-08-28T13:00:06.558Z,29.50
2022-08-28T13:02:26.525Z,29.20
2022-08-28T13:04:35.767Z,28.38
2022-08-28T13:06:39.631Z,26.08
2022-08-28T13:08:41.701Z,27.67
2022-08-28T13:10:50.268Z,26.85
2022-08-28T13:13:10.730Z,24.17
2022-08-28T13:15:12.950Z,28.40
2022-08-28T13:17:35.364Z,24.40
2022-08-28T13:19:38.102Z,26.02
2022-08-28T13:23:54.215Z,26.02
2022-08-28T13:26:04.597Z,23.55
2022-08-28T13:28:14.858Z,26.05
2022-08-28T13:30:20.073Z,25.65
2022-08-28T13:32:22.468Z,24.42
2022-08-28T13:34:48.376Z,27.67
2022-08-28T13:36:53.389Z,26.23
2022-08-28T13:38:55.623Z,23.75
2022-08-28T13:41:00.294Z,23.38
2022-08-28T13:43:11.117Z,24.65
2022-08-28T13:45:13.400Z,23.38
2022-08-28T13:47:15.769Z,25.40
2022-08-28T13:49:17.551Z,24.08
2022-08-28T13:51:21.356Z,22.63
2022-08-28T13:53:23.374Z,23.23
2022-08-28T13:55:25.137Z,22.37
2022-08-28T13:57:28.313Z,19.98
2022-08-28T13:59:31.167Z,18.83
2022-08-28T14:01:52.263Z,19.23
2022-08-28T14:03:54.092Z,19.08
2022-08-28T14:05:55.919Z,18.75
2022-08-28T14:07:57.866Z,19.37
2022-08-28T14:09:59.755Z,18.67
2022-08-28T14:12:02.583Z,18.08
2022-08-28T14:14:04.395Z,18.70
2022-08-28T14:16:07.908Z,17.05
2022-08-28T14:18:09.759Z,16.75
2022-08-28T14:20:12.998Z,20.33
2022-08-28T14:22:15.544Z,16.73
2022-08-28T14:24:18.436Z,16.75
2022-08-28T14:26:20.239Z,16.13
2022-08-28T14:28:22.088Z,16.17
2022-08-28T14:30:25.226Z,17.83
2022-08-28T14:32:27.274Z,19.52
2022-08-28T14:34:29.063Z,16.17
2022-08-28T14:36:31.911Z,17.08
2022-08-28T14:38:33.813Z,18.00
2022-08-28T14:40:40.992Z,17.60
2022-08-28T14:42:43.102Z,18.73
2022-08-28T14:44:45.178Z,19.85
2022-08-28T14:46:49.428Z,17.38
2022-08-28T14:48:51.900Z,16.23
2022-08-28T14:50:53.662Z,17.33
2022-08-28T14:52:55.446Z,18.73
2022-08-28T14:54:57.246Z,17.10
2022-08-28T14:56:59.066Z,18.40
2022-08-28T14:59:02.978Z,19.48
2022-08-28T15:01:05.666Z,18.58
2022-08-28T15:05:09.605Z,17.65
2022-08-28T15:07:12.891Z,15.85
2022-08-28T15:09:15.276Z,16.65
2022-08-28T15:11:20.629Z,15.38
2022-08-28T15:13:22.485Z,15.93
2022-08-28T15:15:24.519Z,14.27
2022-08-28T15:17:33.690Z,17.50
2022-08-28T15:19:36.169Z,13.10
2022-08-28T15:21:42.459Z,13.30
2022-08-28T15:23:44.556Z,12.57
2022-08-28T15:25:46.334Z,14.20
2022-08-28T15:27:48.114Z,15.73
2022-08-28T15:29:50.810Z,14.32
2022-08-28T15:33:54.702Z,15.45
2022-08-28T15:35:56.821Z,13.23
2022-08-28T15:37:58.682Z,14.13
2022-08-28T15:40:19.276Z,14.03
2022-08-28T15:42:21.094Z,9.57
2022-08-28T15:44:23.364Z,9.00
2022-08-28T15:46:25.244Z,7.88
2022-08-28T15:48:27.026Z,8.20
2022-08-28T15:50:28.831Z,8.70
2022-08-28T15:52:30.649Z,7.50
2022-08-28T15:54:32.914Z,8.13
2022-08-28T15:56:35.058Z,8.18
2022-08-28T15:58:37.743Z,7.97
2022-08-28T16:02:41.301Z,7.88
2022-08-28T16:04:43.081Z,7.53
2022-08-28T16:06:46.020Z,7.70
2022-08-28T16:08:49.398Z,9.10
2022-08-28T16:10:52.574Z,7.43
2022-08-28T16:12:57.444Z,7.28
2022-08-28T16:14:59.601Z,7.35
2022-08-28T16:17:05.928Z,7.70
2022-08-28T16:19:12.963Z,7.70
2022-08-28T16:21:15.253Z,6.70
2022-08-28T16:23:17.087Z,6.70
2022-08-28T16:25:18.966Z,6.47
2022-08-28T16:27:21.496Z,8.20
2022-08-28T16:29:23.312Z,8.65
2022-08-28T16:31:25.311Z,8.97
2022-08-28T16:33:27.896Z,7.38
2022-08-28T16:35:29.793Z,7.05
2022-08-28T16:37:39.677Z,8.15
2022-08-28T16:39:41.793Z,6.75
2022-08-28T16:41:49.635Z,7.13
2022-08-28T16:43:52.728Z,7.28
2022-08-28T16:45:54.501Z,8.52
2022-08-28T16:47:56.558Z,7.80
2022-08-28T16:50:00.148Z,7.47
2022-08-28T16:52:02.168Z,6.28
2022-08-28T16:54:04.127Z,7.28
2022-08-28T16:56:07.113Z,7.55
2022-08-28T16:58:08.959Z,7.00
2022-08-28T17:00:13.619Z,7.73
2022-08-28T17:02:15.867Z,8.32
2022-08-28T17:04:18.375Z,8.88
2022-08-28T17:06:26.609Z,7.57
2022-08-28T17:08:28.368Z,6.40
2022-08-28T17:10:31.496Z,7.72
2022-08-28T17:12:34.003Z,7.78
2022-08-28T17:14:35.832Z,6.95
2022-08-28T17:16:38.074Z,6.97
2022-08-28T17:18:47.413Z,6.57
2022-08-28T17:21:12.715Z,8.38
2022-08-28T17:23:15.197Z,7.43
2022-08-28T17:25:17.675Z,8.50
2022-08-28T17:27:22.623Z,7.55
2022-08-28T17:29:25.376Z,8.52
2022-08-28T17:31:27.328Z,9.20
2022-08-28T17:33:29.346Z,8.57
2022-08-28T17:35:31.695Z,8.35
2022-08-28T17:37:44.538Z,8.80
2022-08-28T17:39:47.239Z,9.43
2022-08-28T17:43:51.951Z,10.52
2022-08-28T17:45:53.713Z,9.15
2022-08-28T17:47:55.662Z,10.15
2022-08-28T17:50:01.495Z,11.15
2022-08-28T17:52:03.736Z,11.20
2022-08-28T17:54:06.194Z,12.82
2022-08-28T17:56:08.745Z,12.80
2022-08-28T17:58:10.997Z,11.73
2022-08-28T18:00:16.111Z,14.60
2022-08-28T18:02:18.067Z,13.15
2022-08-28T18:04:24.543Z,17.93
2022-08-28T18:06:26.663Z,12.43
2022-08-28T18:08:28.815Z,13.73
2022-08-28T18:10:33.615Z,14.23
2022-08-28T18:12:35.887Z,15.05
2022-08-28T18:14:38.230Z,13.77
2022-08-28T18:16:40.196Z,14.93
2022-08-28T18:18:42.537Z,14.70
2022-08-28T18:20:44.317Z,14.57
2022-08-28T18:22:46.849Z,16.08
2022-08-28T18:24:52.636Z,14.82
2022-08-28T18:26:54.440Z,16.15
2022-08-28T18:28:56.777Z,15.82
2022-08-28T18:30:59.410Z,19.95
2022-08-28T18:35:05.429Z,15.63
2022-08-28T18:37:07.232Z,19.52
2022-08-28T18:39:10.125Z,16.27
2022-08-28T18:41:13.105Z,17.02
2022-08-28T18:43:17.218Z,17.45
2022-08-28T18:45:19.139Z,16.92
2022-08-28T18:47:20.920Z,19.33
2022-08-28T18:49:22.856Z,17.40
2022-08-28T18:51:24.695Z,17.23
2022-08-28T18:53:27.964Z,17.00
2022-08-28T18:55:32.414Z,16.33
2022-08-28T18:57:34.234Z,17.33
2022-08-28T18:59:36.271Z,20.35
2022-08-28T19:01:38.247Z,17.13
2022-08-28T19:03:40.258Z,20.02
2022-08-28T19:05:42.159Z,17.00
2022-08-28T19:07:44.025Z,18.00
2022-08-28T19:09:45.810Z,17.40
2022-08-28T19:11:48.037Z,17.08
2022-08-28T19:13:49.828Z,18.55
2022-08-28T19:15:52.914Z,17.75
2022-08-28T19:17:55.033Z,19.20
2022-08-28T19:19:57.400Z,18.38
2022-08-28T19:22:00.342Z,17.90
2022-08-28T19:24:02.806Z,16.70
2022-08-28T19:26:06.724Z,17.13
2022-08-28T19:28:08.508Z,19.95
2022-08-28T19:30:13.721Z,18.00
2022-08-28T19:32:15.588Z,16.80
2022-08-28T19:34:17.385Z,17.13
2022-08-28T19:36:19.877Z,19.58
2022-08-28T19:38:22.386Z,17.95
2022-08-28T19:40:24.263Z,18.13
2022-08-28T19:42:28.479Z,16.77
2022-08-28T19:44:30.258Z,16.95
2022-08-28T19:46:33.969Z,17.55
2022-08-28T19:48:36.692Z,17.85
2022-08-28T19:50:38.758Z,18.27
2022-08-28T19:52:40.829Z,18.92
2022-08-28T19:54:42.686Z,16.50
2022-08-28T19:56:44.513Z,16.13
2022-08-28T19:58:46.364Z,18.50
2022-08-28T20:00:48.163Z,18.10
2022-08-28T20:02:52.333Z,17.13
2022-08-28T20:04:54.530Z,18.10
2022-08-28T20:06:56.711Z,16.92
2022-08-28T20:08:58.992Z,18.75
2022-08-28T20:11:01.955Z,18.65
2022-08-28T20:13:04.072Z,17.35
2022-08-28T20:15:07.627Z,17.42
2022-08-28T20:17:10.572Z,17.30
2022-08-28T20:19:13.391Z,18.35
2022-08-28T20:21:15.271Z,18.45
2022-08-28T20:23:18.273Z,17.27
2022-08-28T20:25:20.235Z,16.15
2022-08-28T20:27:22.095Z,17.60
2022-08-28T20:29:24.883Z,17.23
2022-08-28T20:33:28.380Z,17.55
2022-08-28T20:35:30.257Z,17.98
2022-08-28T20:37:44.632Z,17.52
2022-08-28T20:39:48.138Z,17.30
2022-08-28T20:41:50.573Z,18.55
2022-08-28T20:43:52.816Z,17.27
2022-08-28T20:45:54.606Z,17.25
2022-08-28T20:47:56.463Z,18.92
2022-08-28T20:49:58.495Z,19.60
2022-08-28T20:52:01.673Z,17.77
2022-08-28T20:54:03.649Z,16.67
2022-08-28T20:56:08.337Z,17.80
2022-08-28T20:58:10.905Z,17.45
2022-08-28T21:00:13.855Z,18.55
2022-08-28T21:02:21.909Z,16.67
2022-08-28T21:04:24.536Z,16.75
2022-08-28T21:06:26.674Z,18.25
2022-08-28T21:08:28.578Z,16.85
2022-08-28T21:10:30.388Z,18.50
2022-08-28T21:12:32.450Z,17.37
2022-08-28T21:14:34.394Z,16.58
2022-08-28T21:16:37.997Z,17.60
2022-08-28T21:18:53.707Z,16.67
2022-08-28T21:21:07.217Z,18.23
2022-08-28T21:23:10.973Z,15.70
2022-08-28T21:25:13.489Z,18.27
2022-08-28T21:27:15.286Z,14.93
2022-08-28T21:29:23.114Z,15.68
2022-08-28T21:31:25.187Z,16.55
2022-08-28T21:33:27.507Z,16.15
2022-08-28T21:35:29.312Z,15.85
2022-08-28T21:37:31.265Z,16.47
2022-08-28T21:39:33.355Z,15.10
2022-08-28T21:41:35.431Z,16.77
2022-08-28T21:43:37.580Z,16.52
2022-08-28T21:45:39.394Z,14.85
2022-08-28T21:47:42.125Z,14.88
2022-08-28T21:51:49.889Z,14.27
2022-08-28T21:53:52.989Z,13.82
2022-08-28T21:55:55.528Z,15.23
2022-08-28T21:57:57.400Z,17.38
2022-08-28T21:59:59.957Z,14.53
2022-08-28T22:02:02.336Z,14.75
2022-08-28T22:04:05.222Z,15.25
2022-08-28T22:06:15.544Z,15.65
2022-08-28T22:08:19.414Z,16.58
2022-08-28T22:10:21.758Z,14.40
2022-08-28T22:12:23.548Z,13.90
2022-08-28T22:14:25.922Z,13.77
2022-08-28T22:16:28.420Z,15.55
2022-08-28T22:18:34.097Z,13.82
2022-08-28T22:21:01.288Z,16.30
2022-08-28T22:23:11.818Z,14.02
2022-08-28T22:25:14.292Z,13.70
2022-08-28T22:27:16.119Z,14.55
2022-08-28T22:29:17.889Z,13.23
2022-08-28T22:31:20.624Z,14.57
2022-08-28T22:35:24.197Z,12.75
2022-08-28T22:37:26.130Z,14.03
2022-08-28T22:39:27.938Z,13.05
2022-08-28T22:41:30.470Z,13.60
2022-08-28T22:43:32.746Z,12.35
2022-08-28T22:45:34.617Z,11.93
2022-08-28T22:47:36.685Z,13.00
2022-08-28T22:49:39.533Z,14.32
2022-08-28T22:51:41.830Z,14.13
2022-08-28T22:53:43.681Z,12.23
2022-08-28T22:55:45.664Z,12.25
2022-08-28T22:57:47.978Z,12.15
2022-08-28T22:59:50.278Z,12.05
2022-08-28T23:01:52.055Z,11.20
2022-08-28T23:03:53.978Z,10.40
2022-08-28T23:05:56.063Z,10.57
2022-08-28T23:07:57.849Z,11.40
2022-08-28T23:09:59.732Z,10.77
2022-08-28T23:12:01.511Z,10.57
2022-08-28T23:14:04.985Z,10.07
2022-08-28T23:16:07.900Z,10.15
2022-08-28T23:18:10.701Z,11.57
2022-08-28T23:20:15.017Z,11.35
2022-08-28T23:22:17.319Z,10.35
2022-08-28T23:24:19.144Z,10.25
2022-08-28T23:26:21.731Z,11.40
2022-08-28T23:28:23.497Z,12.95
2022-08-28T23:30:26.389Z,11.00
2022-08-28T23:32:28.213Z,9.73
2022-08-28T23:34:30.195Z,11.27
2022-08-28T23:36:32.778Z,11.55
2022-08-28T23:38:43.164Z,12.55
2022-08-28T23:40:45.373Z,10.85
2022-08-28T23:42:47.432Z,12.13
2022-08-28T23:44:50.646Z,13.23
2022-08-28T23:46:52.624Z,9.15
2022-08-28T23:48:54.416Z,10.13
2022-08-28T23:50:56.297Z,11.02
2022-08-28T23:52:58.454Z,9.60
2022-08-28T23:55:00.939Z,12.07
2022-08-28T23:57:02.814Z,10.65
2022-08-28T23:59:07.292Z,10.70
